sensor_id;sensor_type;location;lat;lon;timestamp;pressure;altitude;pressure_sealevel;temperature;humidity
27144;BME280;14672;50.250;8.312;2023-05-15T00:00:55;98540.59;;;14.44;62.69
27144;BME280;14672;50.250;8.312;2023-05-15T00:03:23;98539.03;;;14.43;62.40
27144;BME280;14672;50.250;8.312;2023-05-15T00:05:48;98534.31;;;14.40;61.82
27144;BME280;14672;50.250;8.312;2023-05-15T00:08:15;98537.44;;;14.42;61.92
27144;BME280;14672;50.250;8.312;2023-05-15T00:10:41;98531.91;;;14.24;61.97
27144;BME280;14672;50.250;8.312;2023-05-15T00:13:06;98535.28;;;14.37;62.55
27144;BME280;14672;50.250;8.312;2023-05-15T00:15:35;98541.00;;;14.37;62.42
27144;BME280;14672;50.250;8.312;2023-05-15T00:18:00;98538.22;;;14.28;62.10
27144;BME280;14672;50.250;8.312;2023-05-15T00:20:26;98528.94;;;14.18;62.35
27144;BME280;14672;50.250;8.312;2023-05-15T00:22:52;98534.94;;;14.05;61.72
27144;BME280;14672;50.250;8.312;2023-05-15T00:25:18;98526.97;;;14.09;61.86
27144;BME280;14672;50.250;8.312;2023-05-15T00:27:44;98527.75;;;14.10;61.57
27144;BME280;14672;50.250;8.312;2023-05-15T00:30:12;98523.41;;;14.00;61.57
27144;BME280;14672;50.250;8.312;2023-05-15T00:32:38;98535.03;;;13.96;61.73
27144;BME280;14672;50.250;8.312;2023-05-15T00:35:05;98538.38;;;13.95;61.74
27144;BME280;14672;50.250;8.312;2023-05-15T00:37:33;98534.53;;;13.98;61.71
27144;BME280;14672;50.250;8.312;2023-05-15T00:39:59;98536.97;;;13.76;61.70
27144;BME280;14672;50.250;8.312;2023-05-15T00:42:25;98541.69;;;13.79;62.25
27144;BME280;14672;50.250;8.312;2023-05-15T00:44:52;98536.09;;;13.84;62.13
27144;BME280;14672;50.250;8.312;2023-05-15T00:47:21;98529.13;;;13.85;61.52
27144;BME280;14672;50.250;8.312;2023-05-15T00:49:48;98532.44;;;13.69;62.21
27144;BME280;14672;50.250;8.312;2023-05-15T00:52:15;98532.19;;;13.58;62.16
27144;BME280;14672;50.250;8.312;2023-05-15T00:54:42;98533.22;;;13.46;62.30
27144;BME280;14672;50.250;8.312;2023-05-15T00:57:08;98541.13;;;13.51;62.81
27144;BME280;14672;50.250;8.312;2023-05-15T00:59:35;98527.25;;;13.58;61.78
27144;BME280;14672;50.250;8.312;2023-05-15T01:02:03;98533.72;;;13.44;62.17
27144;BME280;14672;50.250;8.312;2023-05-15T01:04:29;98522.91;;;13.48;62.46
27144;BME280;14672;50.250;8.312;2023-05-15T01:06:55;98537.38;;;13.45;62.23
27144;BME280;14672;50.250;8.312;2023-05-15T01:09:24;98532.94;;;13.44;62.31
27144;BME280;14672;50.250;8.312;2023-05-15T01:11:53;98531.25;;;13.37;61.77
27144;BME280;14672;50.250;8.312;2023-05-15T01:14:21;98523.81;;;13.31;62.43
27144;BME280;14672;50.250;8.312;2023-05-15T01:16:47;98519.31;;;13.39;62.49
27144;BME280;14672;50.250;8.312;2023-05-15T01:19:13;98517.50;;;13.27;63.07
27144;BME280;14672;50.250;8.312;2023-05-15T01:27:32;98515.69;;;13.14;62.33
27144;BME280;14672;50.250;8.312;2023-05-15T01:30:29;98515.06;;;13.10;62.65
27144;BME280;14672;50.250;8.312;2023-05-15T01:33:27;98515.41;;;13.12;62.69
27144;BME280;14672;50.250;8.312;2023-05-15T01:38:51;98516.13;;;12.89;62.90
27144;BME280;14672;50.250;8.312;2023-05-15T01:41:54;98521.66;;;12.93;62.88
27144;BME280;14672;50.250;8.312;2023-05-15T01:44:30;98522.31;;;12.88;62.48
27144;BME280;14672;50.250;8.312;2023-05-15T01:47:00;98526.13;;;12.85;63.19
27144;BME280;14672;50.250;8.312;2023-05-15T01:49:30;98531.03;;;12.84;63.13
27144;BME280;14672;50.250;8.312;2023-05-15T01:52:25;98527.88;;;12.82;62.77
27144;BME280;14672;50.250;8.312;2023-05-15T01:54:54;98523.50;;;12.72;62.29
27144;BME280;14672;50.250;8.312;2023-05-15T01:57:22;98525.69;;;12.77;62.14
27144;BME280;14672;50.250;8.312;2023-05-15T01:59:50;98523.78;;;12.74;62.32
27144;BME280;14672;50.250;8.312;2023-05-15T02:02:17;98518.75;;;12.69;62.21
27144;BME280;14672;50.250;8.312;2023-05-15T02:04:44;98516.13;;;12.56;63.19
27144;BME280;14672;50.250;8.312;2023-05-15T02:07:11;98512.94;;;12.54;62.79
27144;BME280;14672;50.250;8.312;2023-05-15T02:09:38;98513.75;;;12.55;62.87
27144;BME280;14672;50.250;8.312;2023-05-15T02:12:06;98509.81;;;12.52;63.54
27144;BME280;14672;50.250;8.312;2023-05-15T02:14:32;98514.72;;;12.52;62.89
27144;BME280;14672;50.250;8.312;2023-05-15T02:16:59;98519.25;;;12.58;63.81
27144;BME280;14672;50.250;8.312;2023-05-15T02:19:25;98510.44;;;12.56;63.55
27144;BME280;14672;50.250;8.312;2023-05-15T02:21:51;98518.66;;;12.54;63.73
27144;BME280;14672;50.250;8.312;2023-05-15T02:24:17;98510.94;;;12.46;63.38
27144;BME280;14672;50.250;8.312;2023-05-15T02:27:11;98510.09;;;12.54;63.16
27144;BME280;14672;50.250;8.312;2023-05-15T02:36:06;98495.16;;;12.36;63.71
27144;BME280;14672;50.250;8.312;2023-05-15T02:38:52;98506.88;;;12.38;63.42
27144;BME280;14672;50.250;8.312;2023-05-15T02:41:22;98505.44;;;12.33;62.88
27144;BME280;14672;50.250;8.312;2023-05-15T02:43:50;98511.16;;;12.24;63.58
27144;BME280;14672;50.250;8.312;2023-05-15T02:46:18;98508.78;;;12.22;63.55
27144;BME280;14672;50.250;8.312;2023-05-15T02:48:46;98512.31;;;12.17;63.19
27144;BME280;14672;50.250;8.312;2023-05-15T02:51:15;98514.97;;;12.21;63.23
27144;BME280;14672;50.250;8.312;2023-05-15T02:53:42;98515.44;;;12.19;63.79
27144;BME280;14672;50.250;8.312;2023-05-15T02:56:08;98519.25;;;12.26;63.75
27144;BME280;14672;50.250;8.312;2023-05-15T02:58:34;98515.16;;;12.17;63.47
27144;BME280;14672;50.250;8.312;2023-05-15T03:01:00;98509.47;;;12.17;63.25
27144;BME280;14672;50.250;8.312;2023-05-15T03:03:26;98518.28;;;12.19;63.76
27144;BME280;14672;50.250;8.312;2023-05-15T03:05:52;98505.38;;;12.09;63.89
27144;BME280;14672;50.250;8.312;2023-05-15T03:08:18;98508.34;;;12.15;64.44
27144;BME280;14672;50.250;8.312;2023-05-15T03:10:44;98501.72;;;12.18;63.86
27144;BME280;14672;50.250;8.312;2023-05-15T03:13:10;98507.34;;;12.27;63.04
27144;BME280;14672;50.250;8.312;2023-05-15T03:15:35;98505.19;;;12.13;63.69
27144;BME280;14672;50.250;8.312;2023-05-15T03:18:01;98502.19;;;12.07;63.84
27144;BME280;14672;50.250;8.312;2023-05-15T03:20:27;98496.50;;;12.07;63.57
27144;BME280;14672;50.250;8.312;2023-05-15T03:22:53;98500.59;;;12.06;64.13
27144;BME280;14672;50.250;8.312;2023-05-15T03:25:19;98501.88;;;12.05;63.87
27144;BME280;14672;50.250;8.312;2023-05-15T03:27:45;98496.38;;;12.02;63.55
27144;BME280;14672;50.250;8.312;2023-05-15T03:30:11;98499.97;;;12.02;64.33
27144;BME280;14672;50.250;8.312;2023-05-15T03:32:37;98501.41;;;12.07;64.21
27144;BME280;14672;50.250;8.312;2023-05-15T03:35:03;98498.72;;;12.03;64.06
27144;BME280;14672;50.250;8.312;2023-05-15T03:37:29;98501.09;;;11.96;63.64
27144;BME280;14672;50.250;8.312;2023-05-15T03:39:54;98505.09;;;11.89;63.87
27144;BME280;14672;50.250;8.312;2023-05-15T03:42:20;98496.88;;;11.82;63.60
27144;BME280;14672;50.250;8.312;2023-05-15T03:44:51;98496.72;;;11.86;64.50
27144;BME280;14672;50.250;8.312;2023-05-15T03:47:17;98497.34;;;11.81;64.50
27144;BME280;14672;50.250;8.312;2023-05-15T03:49:46;98500.66;;;11.79;63.80
27144;BME280;14672;50.250;8.312;2023-05-15T03:52:12;98500.34;;;11.77;64.22
27144;BME280;14672;50.250;8.312;2023-05-15T03:54:38;98499.09;;;11.78;64.23
27144;BME280;14672;50.250;8.312;2023-05-15T03:57:04;98501.78;;;11.82;64.41
27144;BME280;14672;50.250;8.312;2023-05-15T03:59:30;98501.16;;;11.77;64.03
27144;BME280;14672;50.250;8.312;2023-05-15T04:01:56;98502.88;;;11.66;64.56
27144;BME280;14672;50.250;8.312;2023-05-15T04:04:22;98505.06;;;11.71;64.27
27144;BME280;14672;50.250;8.312;2023-05-15T04:06:50;98502.88;;;11.66;64.14
27144;BME280;14672;50.250;8.312;2023-05-15T04:09:16;98503.16;;;11.68;64.20
27144;BME280;14672;50.250;8.312;2023-05-15T04:11:42;98502.56;;;11.73;64.39
27144;BME280;14672;50.250;8.312;2023-05-15T04:14:08;98512.81;;;11.70;65.31
27144;BME280;14672;50.250;8.312;2023-05-15T04:16:34;98509.34;;;11.75;64.28
27144;BME280;14672;50.250;8.312;2023-05-15T04:19:00;98505.25;;;11.76;64.29
27144;BME280;14672;50.250;8.312;2023-05-15T04:21:25;98499.56;;;11.76;64.34
27144;BME280;14672;50.250;8.312;2023-05-15T04:23:51;98507.13;;;11.80;64.79
27144;BME280;14672;50.250;8.312;2023-05-15T04:26:17;98491.81;;;11.77;64.85
27144;BME280;14672;50.250;8.312;2023-05-15T04:28:43;98495.75;;;11.80;64.83
27144;BME280;14672;50.250;8.312;2023-05-15T04:31:09;98500.03;;;11.84;65.04
27144;BME280;14672;50.250;8.312;2023-05-15T04:33:35;98498.94;;;11.82;65.22
27144;BME280;14672;50.250;8.312;2023-05-15T04:36:01;98490.69;;;11.93;65.55
27144;BME280;14672;50.250;8.312;2023-05-15T04:38:26;98502.53;;;12.00;65.67
27144;BME280;14672;50.250;8.312;2023-05-15T04:40:52;98501.91;;;11.96;65.79
27144;BME280;14672;50.250;8.312;2023-05-15T04:43:18;98501.09;;;11.96;65.55
27144;BME280;14672;50.250;8.312;2023-05-15T04:45:44;98505.66;;;12.02;65.88
27144;BME280;14672;50.250;8.312;2023-05-15T04:48:09;98506.63;;;11.99;65.49
27144;BME280;14672;50.250;8.312;2023-05-15T04:50:35;98506.47;;;12.03;65.56
27144;BME280;14672;50.250;8.312;2023-05-15T04:53:01;98505.53;;;12.06;65.21
27144;BME280;14672;50.250;8.312;2023-05-15T04:55:28;98502.19;;;11.98;65.43
27144;BME280;14672;50.250;8.312;2023-05-15T04:57:53;98502.34;;;12.04;65.19
27144;BME280;14672;50.250;8.312;2023-05-15T05:00:19;98514.69;;;12.10;65.56
27144;BME280;14672;50.250;8.312;2023-05-15T05:02:45;98512.16;;;12.12;65.59
27144;BME280;14672;50.250;8.312;2023-05-15T05:05:10;98513.41;;;12.20;65.72
27144;BME280;14672;50.250;8.312;2023-05-15T05:07:39;98509.59;;;12.23;66.13
27144;BME280;14672;50.250;8.312;2023-05-15T05:10:06;98499.59;;;12.28;66.59
27144;BME280;14672;50.250;8.312;2023-05-15T05:12:32;98510.66;;;12.35;66.96
27144;BME280;14672;50.250;8.312;2023-05-15T05:14:57;98511.88;;;12.43;67.14
27144;BME280;14672;50.250;8.312;2023-05-15T05:17:23;98510.59;;;12.53;66.95
27144;BME280;14672;50.250;8.312;2023-05-15T05:19:49;98508.03;;;12.55;67.35
27144;BME280;14672;50.250;8.312;2023-05-15T05:22:15;98510.50;;;12.71;66.94
27144;BME280;14672;50.250;8.312;2023-05-15T05:24:40;98513.06;;;12.69;67.62
27144;BME280;14672;50.250;8.312;2023-05-15T05:27:06;98515.38;;;12.80;67.64
27144;BME280;14672;50.250;8.312;2023-05-15T05:29:34;98524.38;;;12.87;67.37
27144;BME280;14672;50.250;8.312;2023-05-15T05:32:00;98511.94;;;12.99;67.53
27144;BME280;14672;50.250;8.312;2023-05-15T05:34:27;98518.59;;;13.05;67.75
27144;BME280;14672;50.250;8.312;2023-05-15T05:36:52;98513.16;;;13.16;67.77
27144;BME280;14672;50.250;8.312;2023-05-15T05:39:18;98515.63;;;13.24;68.00
27144;BME280;14672;50.250;8.312;2023-05-15T05:41:44;98520.31;;;13.36;68.36
27144;BME280;14672;50.250;8.312;2023-05-15T05:44:10;98514.53;;;13.45;69.07
27144;BME280;14672;50.250;8.312;2023-05-15T05:46:36;98514.75;;;13.56;69.07
27144;BME280;14672;50.250;8.312;2023-05-15T05:49:02;98518.09;;;13.54;69.41
27144;BME280;14672;50.250;8.312;2023-05-15T05:51:27;98514.31;;;13.72;69.16
27144;BME280;14672;50.250;8.312;2023-05-15T05:53:53;98516.50;;;13.77;69.19
27144;BME280;14672;50.250;8.312;2023-05-15T05:56:19;98519.25;;;13.86;69.31
27144;BME280;14672;50.250;8.312;2023-05-15T05:58:48;98515.31;;;13.98;68.96
27144;BME280;14672;50.250;8.312;2023-05-15T06:01:14;98523.50;;;14.05;68.85
27144;BME280;14672;50.250;8.312;2023-05-15T06:03:41;98526.00;;;14.13;68.59
27144;BME280;14672;50.250;8.312;2023-05-15T06:06:08;98531.41;;;14.25;68.20
27144;BME280;14672;50.250;8.312;2023-05-15T06:08:36;98513.03;;;14.41;67.75
27144;BME280;14672;50.250;8.312;2023-05-15T06:11:02;98527.19;;;14.50;68.29
27144;BME280;14672;50.250;8.312;2023-05-15T06:13:28;98526.09;;;14.62;68.19
27144;BME280;14672;50.250;8.312;2023-05-15T06:18:38;98528.81;;;14.86;68.79
27144;BME280;14672;50.250;8.312;2023-05-15T06:21:04;98524.56;;;14.96;68.76
27144;BME280;14672;50.250;8.312;2023-05-15T06:23:30;98530.34;;;15.01;68.44
27144;BME280;14672;50.250;8.312;2023-05-15T06:25:56;98528.44;;;15.13;68.44
27144;BME280;14672;50.250;8.312;2023-05-15T06:28:24;98531.13;;;15.17;67.66
27144;BME280;14672;50.250;8.312;2023-05-15T06:30:53;98536.69;;;15.26;68.02
27144;BME280;14672;50.250;8.312;2023-05-15T06:33:22;98533.63;;;15.29;68.14
27144;BME280;14672;50.250;8.312;2023-05-15T06:35:48;98546.94;;;15.32;68.74
27144;BME280;14672;50.250;8.312;2023-05-15T06:38:13;98529.03;;;15.37;68.72
27144;BME280;14672;50.250;8.312;2023-05-15T06:40:39;98524.25;;;15.49;67.73
27144;BME280;14672;50.250;8.312;2023-05-15T06:43:05;98526.00;;;15.61;67.70
27144;BME280;14672;50.250;8.312;2023-05-15T06:45:31;98528.88;;;15.61;67.77
27144;BME280;14672;50.250;8.312;2023-05-15T06:47:59;98533.16;;;15.71;67.32
27144;BME280;14672;50.250;8.312;2023-05-15T06:50:25;98528.59;;;15.79;67.32
27144;BME280;14672;50.250;8.312;2023-05-15T06:52:51;98525.50;;;15.83;67.07
27144;BME280;14672;50.250;8.312;2023-05-15T06:55:16;98525.28;;;15.86;67.10
27144;BME280;14672;50.250;8.312;2023-05-15T06:57:42;98523.25;;;15.92;66.98
27144;BME280;14672;50.250;8.312;2023-05-15T07:00:09;98522.59;;;16.03;67.70
27144;BME280;14672;50.250;8.312;2023-05-15T07:02:34;98528.94;;;16.13;66.86
27144;BME280;14672;50.250;8.312;2023-05-15T07:05:00;98525.66;;;16.20;66.89
27144;BME280;14672;50.250;8.312;2023-05-15T07:07:26;98523.53;;;16.20;66.68
27144;BME280;14672;50.250;8.312;2023-05-15T07:09:52;98526.47;;;16.26;66.54
27144;BME280;14672;50.250;8.312;2023-05-15T07:12:17;98524.22;;;16.35;66.51
27144;BME280;14672;50.250;8.312;2023-05-15T07:14:43;98531.09;;;16.43;66.43
27144;BME280;14672;50.250;8.312;2023-05-15T07:17:09;98520.19;;;16.48;66.18
27144;BME280;14672;50.250;8.312;2023-05-15T07:19:38;98524.38;;;16.52;65.57
27144;BME280;14672;50.250;8.312;2023-05-15T07:22:04;98523.97;;;16.59;65.71
27144;BME280;14672;50.250;8.312;2023-05-15T07:24:29;98518.53;;;16.67;65.96
27144;BME280;14672;50.250;8.312;2023-05-15T07:26:55;98519.38;;;16.73;65.61
27144;BME280;14672;50.250;8.312;2023-05-15T07:29:21;98519.13;;;16.76;65.07
27144;BME280;14672;50.250;8.312;2023-05-15T07:31:47;98519.69;;;16.80;65.45
27144;BME280;14672;50.250;8.312;2023-05-15T07:34:13;98525.41;;;16.80;65.15
27144;BME280;14672;50.250;8.312;2023-05-15T07:36:39;98523.97;;;16.96;64.21
27144;BME280;14672;50.250;8.312;2023-05-15T07:39:04;98522.19;;;16.99;64.45
27144;BME280;14672;50.250;8.312;2023-05-15T07:41:30;98526.16;;;17.12;64.18
27144;BME280;14672;50.250;8.312;2023-05-15T07:43:58;98525.66;;;17.14;64.43
27144;BME280;14672;50.250;8.312;2023-05-15T07:46:23;98515.00;;;17.20;63.96
27144;BME280;14672;50.250;8.312;2023-05-15T07:48:49;98512.91;;;17.20;63.97
27144;BME280;14672;50.250;8.312;2023-05-15T07:51:15;98517.66;;;17.29;63.93
27144;BME280;14672;50.250;8.312;2023-05-15T07:53:41;98521.38;;;17.35;64.04
27144;BME280;14672;50.250;8.312;2023-05-15T07:56:06;98510.44;;;17.45;64.02
27144;BME280;14672;50.250;8.312;2023-05-15T07:58:32;98517.75;;;17.46;63.48
27144;BME280;14672;50.250;8.312;2023-05-15T08:01:01;98513.34;;;17.56;63.26
27144;BME280;14672;50.250;8.312;2023-05-15T08:03:27;98516.28;;;17.61;63.08
27144;BME280;14672;50.250;8.312;2023-05-15T08:05:53;98513.97;;;17.65;62.57
27144;BME280;14672;50.250;8.312;2023-05-15T08:08:18;98510.59;;;17.67;62.70
27144;BME280;14672;50.250;8.312;2023-05-15T08:10:44;98508.00;;;17.74;63.16
27144;BME280;14672;50.250;8.312;2023-05-15T08:13:10;98508.28;;;17.82;62.74
27144;BME280;14672;50.250;8.312;2023-05-15T08:15:36;98511.41;;;17.84;62.83
27144;BME280;14672;50.250;8.312;2023-05-15T08:18:08;98503.88;;;17.92;62.53
27144;BME280;14672;50.250;8.312;2023-05-15T08:20:34;98492.94;;;18.02;62.45
27144;BME280;14672;50.250;8.312;2023-05-15T08:23:00;98495.31;;;18.14;61.97
27144;BME280;14672;50.250;8.312;2023-05-15T08:25:26;98494.81;;;18.27;62.47
27144;BME280;14672;50.250;8.312;2023-05-15T08:27:52;98491.41;;;18.28;61.96
27144;BME280;14672;50.250;8.312;2023-05-15T08:30:18;98499.81;;;18.43;61.73
27144;BME280;14672;50.250;8.312;2023-05-15T08:32:43;98499.50;;;18.36;61.61
27144;BME280;14672;50.250;8.312;2023-05-15T08:35:13;98491.66;;;18.47;60.51
27144;BME280;14672;50.250;8.312;2023-05-15T08:37:40;98496.97;;;18.54;60.49
27144;BME280;14672;50.250;8.312;2023-05-15T08:40:06;98498.00;;;18.68;60.89
27144;BME280;14672;50.250;8.312;2023-05-15T08:42:47;98492.75;;;18.77;60.27
27144;BME280;14672;50.250;8.312;2023-05-15T08:45:14;98489.38;;;18.73;59.97
27144;BME280;14672;50.250;8.312;2023-05-15T08:47:41;98491.72;;;18.81;60.10
27144;BME280;14672;50.250;8.312;2023-05-15T08:50:15;98477.81;;;19.01;60.91
27144;BME280;14672;50.250;8.312;2023-05-15T08:52:44;98475.97;;;19.04;60.13
27144;BME280;14672;50.250;8.312;2023-05-15T08:55:15;98481.19;;;19.22;60.35
27144;BME280;14672;50.250;8.312;2023-05-15T08:57:42;98483.81;;;19.14;60.44
27144;BME280;14672;50.250;8.312;2023-05-15T09:00:09;98475.94;;;19.26;60.20
27144;BME280;14672;50.250;8.312;2023-05-15T09:02:40;98473.28;;;19.28;59.75
27144;BME280;14672;50.250;8.312;2023-05-15T09:05:08;98472.00;;;19.35;59.04
27144;BME280;14672;50.250;8.312;2023-05-15T09:07:34;98471.16;;;19.40;58.82
27144;BME280;14672;50.250;8.312;2023-05-15T09:10:02;98471.13;;;19.56;59.20
27144;BME280;14672;50.250;8.312;2023-05-15T09:12:32;98465.06;;;19.65;59.94
27144;BME280;14672;50.250;8.312;2023-05-15T09:15:28;98476.41;;;19.47;59.36
27144;BME280;14672;50.250;8.312;2023-05-15T09:17:55;98474.00;;;19.62;59.61
27144;BME280;14672;50.250;8.312;2023-05-15T09:20:35;98471.41;;;19.58;58.80
27144;BME280;14672;50.250;8.312;2023-05-15T09:23:04;98475.31;;;19.66;58.59
27144;BME280;14672;50.250;8.312;2023-05-15T09:25:41;98460.91;;;19.55;59.34
27144;BME280;14672;50.250;8.312;2023-05-15T09:28:33;98461.06;;;19.80;59.24
27144;BME280;14672;50.250;8.312;2023-05-15T09:31:04;98466.81;;;19.80;58.61
27144;BME280;14672;50.250;8.312;2023-05-15T09:33:36;98460.06;;;19.72;57.12
27144;BME280;14672;50.250;8.312;2023-05-15T09:36:05;98467.28;;;19.95;57.55
27144;BME280;14672;50.250;8.312;2023-05-15T09:38:42;98468.84;;;19.96;57.37
27144;BME280;14672;50.250;8.312;2023-05-15T09:41:12;98459.97;;;19.88;57.55
27144;BME280;14672;50.250;8.312;2023-05-15T09:43:39;98461.78;;;19.91;58.04
27144;BME280;14672;50.250;8.312;2023-05-15T09:46:06;98462.50;;;20.03;58.11
27144;BME280;14672;50.250;8.312;2023-05-15T09:48:34;98465.75;;;19.88;58.17
27144;BME280;14672;50.250;8.312;2023-05-15T09:51:00;98457.31;;;19.96;58.25
27144;BME280;14672;50.250;8.312;2023-05-15T09:53:28;98471.41;;;20.05;57.80
27144;BME280;14672;50.250;8.312;2023-05-15T09:55:54;98449.41;;;20.02;57.64
27144;BME280;14672;50.250;8.312;2023-05-15T09:58:20;98453.53;;;20.12;58.10
27144;BME280;14672;50.250;8.312;2023-05-15T10:00:47;98458.31;;;20.04;57.64
27144;BME280;14672;50.250;8.312;2023-05-15T10:03:14;98455.91;;;20.13;56.96
27144;BME280;14672;50.250;8.312;2023-05-15T10:05:40;98458.38;;;19.93;56.33
27144;BME280;14672;50.250;8.312;2023-05-15T10:08:06;98462.63;;;19.81;56.63
27144;BME280;14672;50.250;8.312;2023-05-15T10:10:32;98456.44;;;20.12;57.06
27144;BME280;14672;50.250;8.312;2023-05-15T10:12:59;98459.72;;;20.27;56.49
27144;BME280;14672;50.250;8.312;2023-05-15T10:15:29;98450.97;;;20.44;56.90
27144;BME280;14672;50.250;8.312;2023-05-15T10:17:56;98455.66;;;20.47;56.16
27144;BME280;14672;50.250;8.312;2023-05-15T10:20:24;98451.44;;;20.53;54.76
27144;BME280;14672;50.250;8.312;2023-05-15T10:22:54;98443.75;;;20.61;54.48
27144;BME280;14672;50.250;8.312;2023-05-15T10:28:08;98439.69;;;20.76;54.17
27144;BME280;14672;50.250;8.312;2023-05-15T10:30:35;98429.88;;;20.84;53.49
27144;BME280;14672;50.250;8.312;2023-05-15T10:33:03;98433.44;;;20.96;53.50
27144;BME280;14672;50.250;8.312;2023-05-15T10:35:29;98433.44;;;20.96;53.96
27144;BME280;14672;50.250;8.312;2023-05-15T10:37:56;98433.88;;;21.05;54.24
27144;BME280;14672;50.250;8.312;2023-05-15T10:40:23;98430.41;;;21.13;53.27
27144;BME280;14672;50.250;8.312;2023-05-15T10:42:48;98425.03;;;21.22;53.37
27144;BME280;14672;50.250;8.312;2023-05-15T10:45:15;98425.94;;;21.36;53.71
27144;BME280;14672;50.250;8.312;2023-05-15T10:47:42;98420.94;;;21.36;53.12
27144;BME280;14672;50.250;8.312;2023-05-15T10:50:10;98416.66;;;21.43;52.69
27144;BME280;14672;50.250;8.312;2023-05-15T10:52:40;98405.66;;;21.60;52.76
27144;BME280;14672;50.250;8.312;2023-05-15T10:55:09;98411.81;;;21.70;51.84
27144;BME280;14672;50.250;8.312;2023-05-15T10:57:38;98405.44;;;21.77;52.20
27144;BME280;14672;50.250;8.312;2023-05-15T11:00:29;98412.38;;;21.87;52.13
27144;BME280;14672;50.250;8.312;2023-05-15T11:02:59;98406.91;;;22.02;51.26
27144;BME280;14672;50.250;8.312;2023-05-15T11:05:25;98403.94;;;22.08;50.71
27144;BME280;14672;50.250;8.312;2023-05-15T11:10:50;98394.44;;;22.26;50.69
27144;BME280;14672;50.250;8.312;2023-05-15T11:13:16;98388.91;;;22.28;49.52
27144;BME280;14672;50.250;8.312;2023-05-15T11:15:44;98389.44;;;22.26;50.06
27144;BME280;14672;50.250;8.312;2023-05-15T11:18:11;98380.06;;;22.52;49.86
27144;BME280;14672;50.250;8.312;2023-05-15T11:21:04;98378.56;;;22.32;49.50
27144;BME280;14672;50.250;8.312;2023-05-15T11:23:28;98363.38;;;22.45;49.56
27144;BME280;14672;50.250;8.312;2023-05-15T11:26:02;98362.28;;;22.61;49.40
27144;BME280;14672;50.250;8.312;2023-05-15T11:28:29;98363.09;;;22.75;48.82
27144;BME280;14672;50.250;8.312;2023-05-15T11:30:59;98365.81;;;22.99;49.13
27144;BME280;14672;50.250;8.312;2023-05-15T11:33:28;98351.66;;;22.96;48.49
27144;BME280;14672;50.250;8.312;2023-05-15T11:36:00;98353.09;;;23.02;47.69
27144;BME280;14672;50.250;8.312;2023-05-15T11:38:26;98345.50;;;22.99;47.61
27144;BME280;14672;50.250;8.312;2023-05-15T11:40:58;98354.66;;;22.90;48.54
27144;BME280;14672;50.250;8.312;2023-05-15T11:46:07;98352.41;;;22.83;49.09
27144;BME280;14672;50.250;8.312;2023-05-15T11:48:42;98346.06;;;22.98;47.93
27144;BME280;14672;50.250;8.312;2023-05-15T11:51:18;98337.47;;;23.18;48.33
27144;BME280;14672;50.250;8.312;2023-05-15T11:53:44;98338.81;;;23.30;48.62
27144;BME280;14672;50.250;8.312;2023-05-15T11:56:23;98334.69;;;23.26;47.71
27144;BME280;14672;50.250;8.312;2023-05-15T11:58:51;98334.44;;;23.37;47.39
27144;BME280;14672;50.250;8.312;2023-05-15T12:01:17;98334.78;;;23.33;47.37
27144;BME280;14672;50.250;8.312;2023-05-15T12:03:46;98322.94;;;23.58;48.17
27144;BME280;14672;50.250;8.312;2023-05-15T12:06:13;98327.44;;;23.46;46.96
27144;BME280;14672;50.250;8.312;2023-05-15T12:08:40;98321.78;;;23.74;46.25
27144;BME280;14672;50.250;8.312;2023-05-15T12:11:07;98317.06;;;23.84;46.04
27144;BME280;14672;50.250;8.312;2023-05-15T12:13:33;98318.41;;;23.83;47.11
27144;BME280;14672;50.250;8.312;2023-05-15T12:16:04;98319.22;;;24.04;46.38
27144;BME280;14672;50.250;8.312;2023-05-15T12:18:33;98311.94;;;24.11;45.83
27144;BME280;14672;50.250;8.312;2023-05-15T12:20:59;98311.91;;;23.90;45.25
27144;BME280;14672;50.250;8.312;2023-05-15T12:23:26;98321.97;;;24.10;45.11
27144;BME280;14672;50.250;8.312;2023-05-15T12:26:00;98320.22;;;24.07;45.12
27144;BME280;14672;50.250;8.312;2023-05-15T12:28:28;98305.31;;;24.23;44.17
27144;BME280;14672;50.250;8.312;2023-05-15T12:30:55;98297.44;;;24.31;45.53
27144;BME280;14672;50.250;8.312;2023-05-15T12:33:21;98294.38;;;24.37;44.86
27144;BME280;14672;50.250;8.312;2023-05-15T12:35:55;98299.34;;;24.29;44.96
27144;BME280;14672;50.250;8.312;2023-05-15T12:38:22;98299.69;;;24.46;43.81
27144;BME280;14672;50.250;8.312;2023-05-15T12:40:52;98291.03;;;24.54;43.15
27144;BME280;14672;50.250;8.312;2023-05-15T12:43:24;98302.41;;;24.23;43.81
27144;BME280;14672;50.250;8.312;2023-05-15T12:45:53;98302.53;;;24.39;44.17
27144;BME280;14672;50.250;8.312;2023-05-15T12:48:19;98320.75;;;24.39;43.82
27144;BME280;14672;50.250;8.312;2023-05-15T12:50:46;98303.13;;;24.65;44.78
27144;BME280;14672;50.250;8.312;2023-05-15T12:53:13;98308.38;;;24.67;44.13
27144;BME280;14672;50.250;8.312;2023-05-15T12:55:42;98300.91;;;24.79;42.89
27144;BME280;14672;50.250;8.312;2023-05-15T12:58:14;98302.34;;;24.65;44.01
27144;BME280;14672;50.250;8.312;2023-05-15T13:00:45;98305.31;;;24.44;43.44
27144;BME280;14672;50.250;8.312;2023-05-15T13:03:13;98319.03;;;24.44;43.49
27144;BME280;14672;50.250;8.312;2023-05-15T13:05:42;98316.31;;;24.46;43.94
27144;BME280;14672;50.250;8.312;2023-05-15T13:08:15;98308.69;;;24.14;43.76
27144;BME280;14672;50.250;8.312;2023-05-15T13:10:41;98313.94;;;24.16;44.04
27144;BME280;14672;50.250;8.312;2023-05-15T13:13:07;98332.59;;;24.07;45.11
27144;BME280;14672;50.250;8.312;2023-05-15T13:15:47;98312.91;;;24.13;43.93
27144;BME280;14672;50.250;8.312;2023-05-15T13:18:15;98315.66;;;23.98;43.10
27144;BME280;14672;50.250;8.312;2023-05-15T13:20:49;98309.22;;;23.92;43.35
27144;BME280;14672;50.250;8.312;2023-05-15T13:23:20;98313.66;;;23.93;43.76
27144;BME280;14672;50.250;8.312;2023-05-15T13:25:48;98311.28;;;23.84;42.41
27144;BME280;14672;50.250;8.312;2023-05-15T13:28:14;98309.47;;;23.60;42.51
27144;BME280;14672;50.250;8.312;2023-05-15T13:30:41;98309.81;;;23.77;42.69